createdAt,value
2023-05-24T00:01:30.589Z,80.88
2023-05-24T00:04:01.100Z,81.12
2023-05-24T00:06:39.560Z,80.44
2023-05-24T00:09:09.275Z,80.59
2023-05-24T00:11:38.597Z,80.85
2023-05-24T00:14:08.149Z,80.93
2023-05-24T00:16:42.610Z,80.52
2023-05-24T00:19:18.038Z,80.16
2023-05-24T00:21:49.515Z,80.72
2023-05-24T00:24:19.012Z,81.22
2023-05-24T00:26:48.327Z,81.57
2023-05-24T00:29:18.054Z,81.84
2023-05-24T00:31:47.478Z,81.55
2023-05-24T00:34:16.899Z,81.87
2023-05-24T00:36:54.427Z,82.28
2023-05-24T00:39:23.827Z,82.67
2023-05-24T00:41:53.111Z,82.39
2023-05-24T00:46:57.812Z,83.09
2023-05-24T00:49:27.527Z,83.39
2023-05-24T00:51:59.416Z,83.33
2023-05-24T00:54:28.810Z,83.12
2023-05-24T00:56:58.665Z,82.89
2023-05-24T00:59:33.978Z,83.18
2023-05-24T01:02:03.626Z,82.94
2023-05-24T01:04:39.075Z,82.55
2023-05-24T01:07:18.835Z,82.45
2023-05-24T01:10:15.238Z,82.26
2023-05-24T01:13:00.638Z,82.04
2023-05-24T01:15:39.326Z,81.97
2023-05-24T01:18:15.236Z,80.90
2023-05-24T01:20:59.000Z,81.31
2023-05-24T01:23:47.594Z,81.99
2023-05-24T01:26:39.888Z,81.89
2023-05-24T01:29:12.710Z,81.84
2023-05-24T01:31:43.100Z,81.43
2023-05-24T01:34:14.142Z,81.46
2023-05-24T01:36:43.491Z,81.56
2023-05-24T01:39:14.932Z,81.43
2023-05-24T01:41:56.660Z,81.81
2023-05-24T01:44:36.758Z,81.10
2023-05-24T01:47:17.063Z,81.16
2023-05-24T01:49:57.600Z,81.08
2023-05-24T01:52:34.125Z,81.09
2023-05-24T01:55:06.977Z,80.84
2023-05-24T01:57:37.488Z,80.88
2023-05-24T02:00:18.293Z,80.82
2023-05-24T02:02:48.780Z,80.49
2023-05-24T02:05:20.355Z,80.07
2023-05-24T02:07:49.851Z,80.42
2023-05-24T02:10:19.629Z,80.44
2023-05-24T02:12:49.434Z,79.77
2023-05-24T02:15:21.737Z,80.01
2023-05-24T02:17:54.331Z,79.60
2023-05-24T02:23:18.726Z,79.51
2023-05-24T02:26:01.381Z,79.65
2023-05-24T02:28:35.216Z,79.63
2023-05-24T02:31:13.414Z,79.70
2023-05-24T02:33:43.205Z,79.41
2023-05-24T02:36:12.682Z,79.75
2023-05-24T02:38:42.375Z,79.73
2023-05-24T02:41:17.543Z,80.37
2023-05-24T02:43:52.085Z,80.41
2023-05-24T02:46:23.308Z,80.38
2023-05-24T02:48:52.883Z,79.86
2023-05-24T02:51:22.297Z,80.33
2023-05-24T02:53:57.301Z,79.74
2023-05-24T02:56:26.860Z,79.30
2023-05-24T02:58:56.834Z,79.71
2023-05-24T03:01:28.340Z,78.85
2023-05-24T03:04:00.598Z,78.37
2023-05-24T03:06:30.809Z,78.56
2023-05-24T03:09:00.771Z,78.07
2023-05-24T03:11:30.061Z,77.56
2023-05-24T03:14:06.088Z,76.84
2023-05-24T03:16:46.018Z,75.54
2023-05-24T03:19:17.004Z,74.55
2023-05-24T03:21:46.809Z,73.91
2023-05-24T03:24:16.132Z,72.60
2023-05-24T03:26:51.660Z,71.55
2023-05-24T03:29:21.293Z,70.78
2023-05-24T03:31:53.587Z,70.75
2023-05-24T03:34:22.971Z,70.47
2023-05-24T03:36:52.727Z,70.72
2023-05-24T03:39:22.353Z,70.84
2023-05-24T03:42:00.297Z,71.06
2023-05-24T03:44:30.042Z,70.77
2023-05-24T03:47:01.820Z,70.38
2023-05-24T03:49:32.359Z,69.95
2023-05-24T03:52:01.838Z,69.52
2023-05-24T03:54:31.193Z,69.87
2023-05-24T03:57:01.428Z,69.49
2023-05-24T03:59:31.017Z,69.39
2023-05-24T04:02:02.337Z,68.91
2023-05-24T04:04:32.381Z,69.71
2023-05-24T04:07:01.818Z,69.53
2023-05-24T04:09:41.322Z,69.68
2023-05-24T04:12:11.305Z,68.80
2023-05-24T04:14:44.464Z,66.83
2023-05-24T04:17:16.748Z,64.81
2023-05-24T04:20:14.523Z,63.31
2023-05-24T04:22:44.010Z,63.31
2023-05-24T04:25:29.944Z,63.87
2023-05-24T04:28:00.011Z,64.92
2023-05-24T04:30:29.975Z,64.47
2023-05-24T04:33:08.057Z,65.26
2023-05-24T04:35:37.899Z,66.10
2023-05-24T04:38:07.372Z,66.48
2023-05-24T04:40:36.686Z,67.02
2023-05-24T04:43:19.323Z,66.79
2023-05-24T04:45:48.794Z,65.95
2023-05-24T04:48:20.954Z,65.37
2023-05-24T04:50:56.492Z,65.54
2023-05-24T04:53:26.644Z,65.14
2023-05-24T04:55:55.972Z,64.86
2023-05-24T05:01:36.611Z,63.69
2023-05-24T05:04:08.249Z,64.14
2023-05-24T05:06:39.381Z,64.60
2023-05-24T05:09:10.327Z,63.63
2023-05-24T05:11:40.026Z,62.69
2023-05-24T05:16:46.146Z,61.25
2023-05-24T05:19:18.041Z,60.87
2023-05-24T05:21:47.633Z,59.93
2023-05-24T05:24:17.866Z,59.58
2023-05-24T05:26:47.363Z,59.54
2023-05-24T05:29:16.641Z,59.16
2023-05-24T05:31:46.062Z,58.04
2023-05-24T05:34:17.487Z,57.79
2023-05-24T05:36:46.875Z,57.29
2023-05-24T05:39:16.261Z,57.10
2023-05-24T05:41:46.456Z,56.24
2023-05-24T05:44:15.986Z,55.98
2023-05-24T05:46:49.529Z,55.56
2023-05-24T05:49:25.909Z,54.42
2023-05-24T05:51:55.472Z,53.66
2023-05-24T05:54:25.235Z,52.46
2023-05-24T05:57:17.788Z,52.58
2023-05-24T05:59:47.333Z,52.03
2023-05-24T06:02:18.602Z,51.02
2023-05-24T06:04:50.666Z,50.78
2023-05-24T06:07:39.474Z,51.59
2023-05-24T06:10:09.989Z,51.55
2023-05-24T06:12:40.306Z,51.54
2023-05-24T06:15:11.120Z,51.22
2023-05-24T06:17:41.916Z,51.39
2023-05-24T06:20:16.677Z,52.14
2023-05-24T06:22:49.480Z,52.01
2023-05-24T06:25:23.367Z,52.20
2023-05-24T06:27:53.366Z,52.07
2023-05-24T06:30:22.737Z,51.83
2023-05-24T06:32:52.173Z,51.76
2023-05-24T06:35:23.790Z,51.96
2023-05-24T06:37:53.058Z,52.42
2023-05-24T06:40:46.281Z,54.26
2023-05-24T06:43:17.180Z,55.07
2023-05-24T06:45:46.526Z,55.47
2023-05-24T06:48:17.614Z,55.18
2023-05-24T06:50:49.125Z,55.25
2023-05-24T06:53:18.462Z,54.72
2023-05-24T06:55:48.132Z,54.13
2023-05-24T06:58:17.614Z,52.87
2023-05-24T07:00:47.347Z,50.96
2023-05-24T07:03:16.920Z,50.20
2023-05-24T07:05:46.352Z,48.83
2023-05-24T07:08:17.955Z,48.30
2023-05-24T07:10:52.324Z,47.63
2023-05-24T07:13:34.805Z,47.22
2023-05-24T07:16:04.457Z,46.88
2023-05-24T07:18:33.902Z,46.54
2023-05-24T07:21:03.534Z,46.50
2023-05-24T07:23:35.135Z,46.53
2023-05-24T07:26:09.586Z,46.56
2023-05-24T07:28:40.195Z,46.80
2023-05-24T07:31:10.841Z,46.33
2023-05-24T07:33:45.234Z,46.46
2023-05-24T07:36:14.740Z,46.42
2023-05-24T07:38:46.819Z,46.50
2023-05-24T07:41:16.734Z,46.67
2023-05-24T07:43:46.223Z,46.23
2023-05-24T07:46:16.062Z,46.72
2023-05-24T07:48:45.747Z,46.61
2023-05-24T07:51:20.719Z,46.30
2023-05-24T07:53:52.385Z,46.25
2023-05-24T07:56:21.888Z,45.98
2023-05-24T07:58:51.563Z,45.85
2023-05-24T08:01:21.023Z,45.77
2023-05-24T08:03:50.483Z,45.64
2023-05-24T08:06:20.218Z,46.03
2023-05-24T08:11:31.963Z,46.42
2023-05-24T08:14:01.472Z,46.34
2023-05-24T08:16:31.617Z,45.74
2023-05-24T08:19:01.122Z,45.85
2023-05-24T08:21:31.678Z,45.54
2023-05-24T08:24:03.111Z,45.47
2023-05-24T08:26:32.556Z,45.58
2023-05-24T08:29:12.725Z,45.17
2023-05-24T08:31:42.269Z,44.77
2023-05-24T08:34:12.419Z,43.64
2023-05-24T08:36:43.700Z,42.41
2023-05-24T08:39:19.185Z,41.85
2023-05-24T08:42:00.951Z,42.03
2023-05-24T08:44:49.551Z,42.04
2023-05-24T08:47:19.236Z,42.12
2023-05-24T08:49:49.749Z,41.61
2023-05-24T08:52:25.852Z,41.77
2023-05-24T08:54:57.379Z,41.69
2023-05-24T08:57:28.353Z,41.61
2023-05-24T08:59:57.773Z,41.65
2023-05-24T09:02:28.410Z,42.61
2023-05-24T09:04:58.954Z,42.18
2023-05-24T09:07:30.447Z,41.96
2023-05-24T09:10:07.649Z,41.53
2023-05-24T09:12:43.630Z,41.31
2023-05-24T09:15:13.997Z,41.50
2023-05-24T09:17:43.351Z,40.78
2023-05-24T09:20:23.505Z,41.02
2023-05-24T09:22:55.517Z,40.96
2023-05-24T09:25:33.513Z,40.55
2023-05-24T09:28:08.948Z,40.62
2023-05-24T09:30:38.714Z,39.82
2023-05-24T09:33:14.593Z,38.97
2023-05-24T09:35:46.086Z,38.68
2023-05-24T09:38:20.178Z,38.49
2023-05-24T09:41:08.744Z,38.89
2023-05-24T09:43:50.238Z,40.44
2023-05-24T09:46:19.859Z,39.29
2023-05-24T09:48:59.434Z,41.27
2023-05-24T09:51:34.257Z,41.97
2023-05-24T09:54:04.977Z,42.58
2023-05-24T09:56:37.430Z,42.77
2023-05-24T09:59:10.359Z,42.78
2023-05-24T10:01:45.110Z,43.00
2023-05-24T10:04:15.289Z,43.43
2023-05-24T10:06:46.190Z,43.76
2023-05-24T10:09:21.710Z,43.27
2023-05-24T10:11:59.035Z,42.96
2023-05-24T10:14:30.029Z,42.21
2023-05-24T10:16:59.559Z,41.93
2023-05-24T10:19:29.827Z,41.33
2023-05-24T10:22:01.466Z,40.91
2023-05-24T10:24:40.696Z,40.79
2023-05-24T10:27:18.111Z,40.42
2023-05-24T10:30:04.640Z,40.59
2023-05-24T10:32:44.754Z,40.79
2023-05-24T10:35:20.614Z,41.60
2023-05-24T10:37:50.939Z,41.81
2023-05-24T10:40:21.853Z,43.36
2023-05-24T10:43:03.356Z,43.95
2023-05-24T10:45:39.232Z,44.00
2023-05-24T10:48:38.559Z,43.23
2023-05-24T10:51:39.149Z,42.89
2023-05-24T10:54:21.289Z,42.05
2023-05-24T10:56:53.229Z,41.34
2023-05-24T10:59:45.093Z,41.63
2023-05-24T11:02:16.459Z,41.21
2023-05-24T11:07:23.652Z,42.05
2023-05-24T11:09:57.026Z,41.94
2023-05-24T11:12:38.264Z,42.03
2023-05-24T11:15:11.644Z,42.30
2023-05-24T11:18:12.408Z,42.69
2023-05-24T11:20:48.502Z,42.92
2023-05-24T11:23:18.887Z,43.12
2023-05-24T11:25:49.732Z,43.21
2023-05-24T11:28:20.293Z,43.16
2023-05-24T11:30:56.780Z,43.49
2023-05-24T11:33:27.475Z,44.00
2023-05-24T11:35:57.615Z,45.48
2023-05-24T11:38:34.573Z,45.75
2023-05-24T11:41:09.957Z,47.09
2023-05-24T11:43:41.112Z,47.61
2023-05-24T11:46:13.036Z,48.28
2023-05-24T11:48:42.732Z,48.34
2023-05-24T11:51:12.032Z,47.23
2023-05-24T11:53:54.755Z,47.28
2023-05-24T11:56:24.665Z,47.41
2023-05-24T11:58:59.182Z,47.29
2023-05-24T12:01:30.871Z,47.36
2023-05-24T12:04:07.474Z,47.60
2023-05-24T12:06:43.572Z,46.82
2023-05-24T12:09:15.073Z,46.81
2023-05-24T12:11:44.850Z,47.10
2023-05-24T12:14:20.638Z,47.05
2023-05-24T12:16:52.018Z,47.14
2023-05-24T12:19:32.320Z,46.32
2023-05-24T12:22:04.658Z,46.98
2023-05-24T12:27:20.729Z,46.35
2023-05-24T12:29:50.448Z,45.43
2023-05-24T12:32:22.204Z,44.90
2023-05-24T12:34:57.094Z,44.51
2023-05-24T12:37:26.839Z,44.64
2023-05-24T12:39:56.196Z,44.34
2023-05-24T12:42:39.141Z,44.27
2023-05-24T12:51:16.356Z,44.89
2023-05-24T12:53:51.391Z,45.34
2023-05-24T12:56:21.880Z,45.23
2023-05-24T12:58:51.357Z,45.17
2023-05-24T13:01:23.459Z,44.77
2023-05-24T13:03:59.641Z,43.64
2023-05-24T13:06:30.960Z,43.93
2023-05-24T13:09:00.246Z,43.81
2023-05-24T13:11:30.928Z,43.97
2023-05-24T13:14:06.088Z,43.96
2023-05-24T13:16:35.784Z,44.52
2023-05-24T13:19:12.160Z,44.83
2023-05-24T13:21:44.097Z,44.34
2023-05-24T13:24:16.538Z,43.73
2023-05-24T13:26:47.367Z,43.36
2023-05-24T13:31:49.180Z,43.85
2023-05-24T13:34:18.644Z,44.53
2023-05-24T13:36:50.014Z,46.09
2023-05-24T13:39:19.618Z,47.50
2023-05-24T13:41:49.391Z,48.67
2023-05-24T13:44:18.948Z,49.35
2023-05-24T13:47:00.513Z,49.56
2023-05-24T13:49:29.980Z,49.23
2023-05-24T13:52:02.248Z,48.92
2023-05-24T13:54:31.884Z,48.52
2023-05-24T13:57:02.358Z,48.57
2023-05-24T13:59:32.060Z,48.01
2023-05-24T14:02:01.448Z,48.08
2023-05-24T14:04:31.944Z,48.04
2023-05-24T14:07:03.653Z,48.15
2023-05-24T14:09:38.227Z,48.42
2023-05-24T14:12:13.608Z,48.77
2023-05-24T14:14:59.806Z,48.89
2023-05-24T14:17:30.000Z,48.25
2023-05-24T14:20:09.409Z,48.28
2023-05-24T14:22:41.320Z,48.07
2023-05-24T14:25:16.456Z,47.87
2023-05-24T14:27:46.098Z,47.30
2023-05-24T14:30:16.051Z,47.00
2023-05-24T14:32:45.473Z,46.60
2023-05-24T14:35:14.926Z,47.15
2023-05-24T14:40:21.811Z,47.85
2023-05-24T14:42:51.207Z,47.90
2023-05-24T14:45:25.992Z,47.72
2023-05-24T14:47:55.539Z,48.23
2023-05-24T14:50:25.573Z,48.65
2023-05-24T14:52:57.064Z,48.80
2023-05-24T14:55:26.884Z,49.79
2023-05-24T14:57:56.329Z,50.36
2023-05-24T15:00:28.381Z,50.79
2023-05-24T15:02:59.328Z,51.05
2023-05-24T15:05:34.119Z,51.82
2023-05-24T15:08:06.054Z,52.39
2023-05-24T15:10:35.953Z,51.88
2023-05-24T15:13:05.357Z,52.26
2023-05-24T15:15:34.828Z,52.10
2023-05-24T15:18:04.413Z,52.17
2023-05-24T15:20:35.853Z,52.19
2023-05-24T15:23:13.523Z,52.69
2023-05-24T15:25:42.847Z,51.43
2023-05-24T15:28:14.351Z,52.93
2023-05-24T15:30:48.375Z,52.95
2023-05-24T15:33:18.274Z,53.29
2023-05-24T15:35:48.705Z,53.74
2023-05-24T15:38:20.575Z,54.17
2023-05-24T15:40:50.417Z,54.50
2023-05-24T15:43:25.109Z,54.96
2023-05-24T15:45:54.518Z,55.17
2023-05-24T15:48:24.039Z,54.99
2023-05-24T15:51:32.629Z,55.69
2023-05-24T15:53:45.605Z,55.58
2023-05-24T15:56:16.094Z,55.98
2023-05-24T15:58:45.567Z,56.40
2023-05-24T16:01:15.294Z,56.61
2023-05-24T16:03:50.939Z,57.30
2023-05-24T16:06:20.698Z,57.23
2023-05-24T16:08:52.041Z,57.47
2023-05-24T16:11:21.991Z,56.88
2023-05-24T16:13:53.249Z,57.95
2023-05-24T16:16:23.331Z,57.88
2023-05-24T16:18:53.182Z,58.59
2023-05-24T16:21:23.100Z,58.79
2023-05-24T16:23:54.544Z,59.15
2023-05-24T16:26:24.066Z,58.83
2023-05-24T16:28:53.462Z,58.35
2023-05-24T16:31:29.807Z,58.55
2023-05-24T16:33:59.117Z,58.60
2023-05-24T16:36:34.936Z,59.27
2023-05-24T16:39:06.806Z,58.66
2023-05-24T16:41:41.183Z,58.81
2023-05-24T16:44:17.018Z,59.13
2023-05-24T16:49:36.102Z,59.76
2023-05-24T16:52:05.671Z,60.12
2023-05-24T16:54:36.939Z,60.69
2023-05-24T16:57:12.958Z,60.75
2023-05-24T16:59:42.546Z,61.13
2023-05-24T17:02:22.160Z,61.46
2023-05-24T17:04:52.007Z,61.86
2023-05-24T17:07:31.639Z,62.75
2023-05-24T17:10:03.136Z,63.17
2023-05-24T17:12:33.910Z,63.10
2023-05-24T17:15:03.487Z,63.85
2023-05-24T17:17:42.057Z,64.33
2023-05-24T17:20:12.224Z,64.18
2023-05-24T17:22:41.696Z,64.56
2023-05-24T17:25:13.162Z,65.40
2023-05-24T17:27:42.260Z,64.33
2023-05-24T17:30:12.424Z,65.35
2023-05-24T17:32:47.004Z,66.02
2023-05-24T17:35:16.568Z,66.04
2023-05-24T17:37:50.985Z,66.81
2023-05-24T17:40:22.546Z,67.36
2023-05-24T17:42:51.911Z,67.20
2023-05-24T17:45:21.316Z,68.52
2023-05-24T17:47:51.254Z,68.74
2023-05-24T17:50:20.882Z,68.58
2023-05-24T17:52:50.922Z,68.63
2023-05-24T17:55:22.477Z,69.05
2023-05-24T17:57:52.401Z,68.79
2023-05-24T18:00:22.578Z,69.23
2023-05-24T18:02:51.945Z,69.55
2023-05-24T18:05:21.378Z,70.01
2023-05-24T18:07:56.173Z,70.14
2023-05-24T18:10:27.472Z,70.65
2023-05-24T18:12:57.025Z,70.58
2023-05-24T18:15:26.315Z,70.66
2023-05-24T18:17:56.186Z,70.77
2023-05-24T18:20:25.959Z,70.77
2023-05-24T18:22:55.647Z,70.82
2023-05-24T18:25:27.193Z,71.18
2023-05-24T18:27:56.969Z,70.73
2023-05-24T18:30:27.757Z,70.51
2023-05-24T18:33:05.836Z,70.92
2023-05-24T18:35:42.649Z,70.82
2023-05-24T18:38:27.343Z,71.50
2023-05-24T18:40:59.359Z,71.26
2023-05-24T18:43:28.971Z,71.09
2023-05-24T18:45:58.375Z,71.98
2023-05-24T18:48:47.669Z,71.85
2023-05-24T18:51:17.155Z,72.33
2023-05-24T18:53:48.559Z,72.59
2023-05-24T18:56:20.107Z,73.39
2023-05-24T18:58:50.876Z,73.02
2023-05-24T19:01:20.508Z,73.01
2023-05-24T19:03:54.097Z,74.41
2023-05-24T19:06:23.566Z,75.22
2023-05-24T19:08:53.062Z,75.71
2023-05-24T19:11:24.448Z,77.02
2023-05-24T19:13:54.062Z,76.97
2023-05-24T19:16:23.353Z,76.53
2023-05-24T19:18:52.901Z,76.48
2023-05-24T19:21:23.800Z,75.51
2023-05-24T19:23:58.716Z,74.85
2023-05-24T19:26:30.212Z,75.62
2023-05-24T19:29:00.283Z,75.78
2023-05-24T19:31:29.815Z,76.15
2023-05-24T19:34:05.117Z,76.21
2023-05-24T19:36:53.030Z,76.39
2023-05-24T19:39:24.592Z,76.41
2023-05-24T19:41:55.991Z,76.67
2023-05-24T19:44:25.594Z,76.60
2023-05-24T19:47:08.048Z,77.34
2023-05-24T19:49:42.652Z,77.50
2023-05-24T19:52:14.114Z,77.94
2023-05-24T19:54:49.772Z,78.09
2023-05-24T19:57:21.265Z,79.22
2023-05-24T19:59:56.033Z,78.91
2023-05-24T20:02:25.637Z,79.55
2023-05-24T20:04:55.605Z,80.19
2023-05-24T20:07:24.994Z,79.98
2023-05-24T20:09:59.062Z,80.73
2023-05-24T20:12:42.433Z,81.50
2023-05-24T20:15:13.223Z,80.69
2023-05-24T20:17:45.037Z,81.45
2023-05-24T20:20:14.848Z,81.94
2023-05-24T20:22:44.132Z,82.38
2023-05-24T20:25:14.733Z,83.23
2023-05-24T20:27:46.009Z,83.10
2023-05-24T20:30:17.478Z,82.97
2023-05-24T20:32:47.089Z,82.99
2023-05-24T20:35:16.451Z,84.07
2023-05-24T20:37:51.254Z,84.53
2023-05-24T20:40:25.082Z,85.54
2023-05-24T20:42:57.000Z,85.83
2023-05-24T20:45:25.941Z,86.06
2023-05-24T20:47:55.260Z,84.83
2023-05-24T20:50:32.016Z,86.41
2023-05-24T20:53:06.594Z,84.82
2023-05-24T20:55:36.112Z,85.59
2023-05-24T20:58:07.518Z,86.91
2023-05-24T21:00:39.512Z,86.47
2023-05-24T21:03:09.379Z,87.21
2023-05-24T21:05:39.922Z,87.57
2023-05-24T21:08:15.343Z,87.47
2023-05-24T21:10:44.707Z,88.05
2023-05-24T21:13:20.057Z,88.20
2023-05-24T21:15:50.555Z,88.30
2023-05-24T21:18:20.215Z,88.16
2023-05-24T21:20:49.609Z,88.75
2023-05-24T21:23:23.957Z,88.89
2023-05-24T21:25:53.462Z,89.36
2023-05-24T21:28:24.944Z,89.86
2023-05-24T21:30:54.531Z,89.87
2023-05-24T21:33:23.917Z,90.53
2023-05-24T21:35:54.176Z,90.75
2023-05-24T21:38:23.620Z,90.89
2023-05-24T21:40:53.168Z,90.58
2023-05-24T21:43:26.053Z,90.50
2023-05-24T21:45:55.574Z,90.05
2023-05-24T21:48:24.911Z,88.98
2023-05-24T21:50:54.331Z,88.43
2023-05-24T21:53:23.588Z,88.35
2023-05-24T21:55:53.469Z,88.39
2023-05-24T21:58:22.989Z,88.91
2023-05-24T22:03:29.748Z,89.49
2023-05-24T22:06:05.759Z,90.07
2023-05-24T22:11:16.145Z,90.72
2023-05-24T22:13:51.782Z,92.04
2023-05-24T22:16:23.344Z,92.13
2023-05-24T22:19:03.121Z,92.07
2023-05-24T22:21:34.092Z,92.41
2023-05-24T22:24:08.606Z,93.38
2023-05-24T22:26:41.159Z,93.13
2023-05-24T22:29:10.926Z,93.37
2023-05-24T22:31:48.673Z,94.12
2023-05-24T22:34:33.120Z,94.17
2023-05-24T22:37:02.614Z,92.81
2023-05-24T22:39:31.991Z,93.23
2023-05-24T22:42:01.533Z,93.19
2023-05-24T22:44:31.562Z,93.39
2023-05-24T22:47:08.549Z,93.66
2023-05-24T22:49:37.860Z,93.81
2023-05-24T22:52:12.620Z,94.83
2023-05-24T22:54:42.038Z,94.25
2023-05-24T22:57:11.252Z,94.17
2023-05-24T22:59:45.741Z,95.24
2023-05-24T23:02:17.121Z,95.23
2023-05-24T23:04:53.467Z,95.19
2023-05-24T23:07:22.908Z,94.71
2023-05-24T23:09:53.081Z,94.54
2023-05-24T23:12:22.737Z,94.24
2023-05-24T23:14:53.788Z,93.94
2023-05-24T23:17:31.425Z,94.32
2023-05-24T23:20:00.858Z,93.86
2023-05-24T23:22:30.300Z,94.34
2023-05-24T23:24:59.742Z,94.62
2023-05-24T23:27:29.163Z,94.96
2023-05-24T23:29:58.512Z,95.38
2023-05-24T23:32:36.049Z,95.61
2023-05-24T23:35:11.321Z,95.35
2023-05-24T23:37:40.679Z,95.02
2023-05-24T23:40:11.496Z,95.41
2023-05-24T23:42:46.004Z,96.20
2023-05-24T23:45:25.540Z,97.24
2023-05-24T23:47:56.968Z,96.91
2023-05-24T23:50:27.117Z,96.46
2023-05-24T23:52:57.440Z,97.44
2023-05-24T23:55:26.762Z,97.38
2023-05-24T23:58:07.709Z,98.47
